createdAt,value
2023-02-02T00:00:33.413Z,100525.25
2023-02-02T00:03:00.286Z,100515.94
2023-02-02T00:05:27.286Z,100508.78
2023-02-02T00:07:54.039Z,100512.38
2023-02-02T00:10:20.799Z,100510.69
2023-02-02T00:12:47.545Z,100505.38
2023-02-02T00:15:14.292Z,100511.41
2023-02-02T00:17:41.221Z,100515.16
2023-02-02T00:20:07.952Z,100506.56
2023-02-02T00:22:35.191Z,100514.31
2023-02-02T00:25:01.938Z,100514.00
2023-02-02T00:27:28.719Z,100509.44
2023-02-02T00:29:57.332Z,100525.75
2023-02-02T00:32:24.072Z,100514.97
2023-02-02T00:34:50.829Z,100507.25
2023-02-02T00:37:17.558Z,100492.63
2023-02-02T00:39:44.283Z,100506.66
2023-02-02T00:42:11.045Z,100500.88
2023-02-02T00:44:56.474Z,100503.53
2023-02-02T00:47:23.229Z,100511.91
2023-02-02T00:49:49.986Z,100507.66
2023-02-02T00:52:16.728Z,100500.91
2023-02-02T00:54:43.462Z,100510.97
2023-02-02T00:57:10.197Z,100526.72
2023-02-02T00:59:36.923Z,100508.88
2023-02-02T01:02:03.737Z,100506.88
2023-02-02T01:04:30.588Z,100509.31
2023-02-02T01:06:57.354Z,100526.56
2023-02-02T01:09:24.097Z,100526.06
2023-02-02T01:11:50.851Z,100540.22
2023-02-02T01:14:17.650Z,100538.44
2023-02-02T01:16:44.560Z,100535.81
2023-02-02T01:19:11.660Z,100542.75
2023-02-02T01:21:38.420Z,100532.53
2023-02-02T01:24:05.188Z,100526.97
2023-02-02T01:26:31.975Z,100535.50
2023-02-02T01:28:58.712Z,100531.75
2023-02-02T01:31:25.477Z,100531.28
2023-02-02T01:33:52.204Z,100529.00
2023-02-02T01:36:18.945Z,100533.16
2023-02-02T01:38:45.705Z,100527.22
2023-02-02T01:41:12.461Z,100522.06
2023-02-02T01:43:39.289Z,100538.94
2023-02-02T01:46:06.086Z,100546.16
2023-02-02T01:48:32.875Z,100549.28
2023-02-02T01:50:59.621Z,100550.75
2023-02-02T01:53:26.380Z,100561.88
2023-02-02T01:55:53.140Z,100562.06
2023-02-02T01:58:19.896Z,100552.66
2023-02-02T02:00:47.159Z,100559.31
2023-02-02T02:03:13.975Z,100564.34
2023-02-02T02:05:40.723Z,100564.97
2023-02-02T02:08:07.503Z,100566.97
2023-02-02T02:10:34.821Z,100568.44
2023-02-02T02:13:01.586Z,100564.78
2023-02-02T02:15:47.111Z,100569.09
2023-02-02T02:18:13.852Z,100572.97
2023-02-02T02:20:59.239Z,100571.53
2023-02-02T02:23:44.628Z,100568.72
2023-02-02T02:26:30.100Z,100572.16
2023-02-02T02:28:56.885Z,100574.44
2023-02-02T02:31:23.722Z,100575.53
2023-02-02T02:33:50.507Z,100586.81
2023-02-02T02:36:17.251Z,100590.34
2023-02-02T02:38:43.990Z,100600.56
2023-02-02T02:41:10.851Z,100594.28
2023-02-02T02:43:37.609Z,100600.31
2023-02-02T02:46:04.392Z,100604.06
2023-02-02T02:48:31.188Z,100607.72
2023-02-02T02:50:57.937Z,100626.75
2023-02-02T02:53:24.697Z,100631.34
2023-02-02T02:55:51.473Z,100623.16
2023-02-02T02:58:18.227Z,100622.31
2023-02-02T03:00:44.960Z,100627.72
2023-02-02T03:03:11.733Z,100630.94
2023-02-02T03:05:38.508Z,100623.16
2023-02-02T03:08:05.520Z,100641.63
2023-02-02T03:10:32.278Z,100638.03
2023-02-02T03:12:59.034Z,100626.59
2023-02-02T03:15:26.094Z,100637.38
2023-02-02T03:17:53.152Z,100635.25
2023-02-02T03:20:19.942Z,100640.72
2023-02-02T03:22:46.687Z,100648.69
2023-02-02T03:25:13.819Z,100644.22
2023-02-02T03:27:40.569Z,100637.25
2023-02-02T03:30:07.899Z,100653.34
2023-02-02T03:32:34.715Z,100656.00
2023-02-02T03:35:01.461Z,100657.16
2023-02-02T03:37:28.201Z,100666.00
2023-02-02T03:39:54.940Z,100669.09
2023-02-02T03:42:21.695Z,100662.91
2023-02-02T03:44:48.468Z,100676.34
2023-02-02T03:47:15.247Z,100685.91
2023-02-02T03:49:41.985Z,100673.25
2023-02-02T03:52:08.709Z,100682.41
2023-02-02T03:54:35.509Z,100685.16
2023-02-02T03:57:02.259Z,100685.16
2023-02-02T03:59:29.003Z,100690.66
2023-02-02T04:01:55.812Z,100692.56
2023-02-02T04:04:22.597Z,100685.03
2023-02-02T04:06:49.323Z,100704.28
2023-02-02T04:09:16.071Z,100706.59
2023-02-02T04:11:42.840Z,100706.59
2023-02-02T04:14:09.684Z,100705.84
2023-02-02T04:16:37.645Z,100711.03
2023-02-02T04:19:04.459Z,100717.56
2023-02-02T04:21:31.200Z,100720.16
2023-02-02T04:23:57.957Z,100735.53
2023-02-02T04:26:26.066Z,100734.94
2023-02-02T04:28:52.995Z,100741.41
2023-02-02T04:31:19.808Z,100730.03
2023-02-02T04:33:46.552Z,100729.44
2023-02-02T04:36:13.363Z,100740.59
2023-02-02T04:38:40.189Z,100746.34
2023-02-02T04:41:07.222Z,100744.38
2023-02-02T04:43:33.962Z,100743.97
2023-02-02T04:46:00.753Z,100748.91
2023-02-02T04:48:27.553Z,100750.53
2023-02-02T04:50:54.286Z,100754.06
2023-02-02T04:53:21.029Z,100766.84
2023-02-02T04:55:47.770Z,100768.03
2023-02-02T04:58:14.519Z,100772.66
2023-02-02T05:00:41.302Z,100768.81
2023-02-02T05:03:08.069Z,100767.84
2023-02-02T05:05:34.831Z,100778.25
2023-02-02T05:08:01.573Z,100782.78
2023-02-02T05:10:28.311Z,100783.41
2023-02-02T05:12:55.037Z,100781.16
2023-02-02T05:15:22.132Z,100790.69
2023-02-02T05:17:48.981Z,100791.19
2023-02-02T05:20:15.762Z,100793.72
2023-02-02T05:22:42.512Z,100799.66
2023-02-02T05:25:09.256Z,100801.66
2023-02-02T05:27:36.070Z,100798.44
2023-02-02T05:30:02.894Z,100806.78
2023-02-02T05:32:29.710Z,100805.22
2023-02-02T05:34:56.454Z,100809.72
2023-02-02T05:37:23.350Z,100816.44
2023-02-02T05:39:52.049Z,100824.88
2023-02-02T05:42:18.833Z,100813.88
2023-02-02T05:44:45.626Z,100823.63
2023-02-02T05:47:12.354Z,100826.44
2023-02-02T05:49:39.086Z,100819.44
2023-02-02T05:52:05.855Z,100830.94
2023-02-02T05:54:32.642Z,100841.47
2023-02-02T05:57:01.079Z,100836.31
2023-02-02T05:59:29.123Z,100839.47
2023-02-02T06:01:55.911Z,100853.88
2023-02-02T06:04:22.899Z,100839.91
2023-02-02T06:06:49.687Z,100853.75
2023-02-02T06:09:16.417Z,100850.00
2023-02-02T06:11:43.158Z,100852.84
2023-02-02T06:14:09.901Z,100860.44
2023-02-02T06:16:36.730Z,100865.44
2023-02-02T06:19:03.549Z,100864.97
2023-02-02T06:21:33.216Z,100870.41
2023-02-02T06:24:00.041Z,100877.78
2023-02-02T06:26:27.013Z,100872.69
2023-02-02T06:28:53.818Z,100882.50
2023-02-02T06:31:20.683Z,100892.28
2023-02-02T06:33:47.466Z,100903.22
2023-02-02T06:36:14.229Z,100905.31
2023-02-02T06:38:40.962Z,100900.38
2023-02-02T06:41:07.688Z,100892.81
2023-02-02T06:43:34.464Z,100899.84
2023-02-02T06:46:01.256Z,100905.41
2023-02-02T06:48:28.018Z,100908.81
2023-02-02T06:50:54.826Z,100912.94
2023-02-02T06:53:24.622Z,100911.94
2023-02-02T06:55:51.359Z,100922.69
2023-02-02T06:58:18.170Z,100922.19
2023-02-02T07:00:44.907Z,100924.00
2023-02-02T07:03:11.661Z,100932.88
2023-02-02T07:05:39.223Z,100924.75
2023-02-02T07:08:05.967Z,100933.38
2023-02-02T07:11:13.235Z,100935.66
2023-02-02T07:13:19.486Z,100939.00
2023-02-02T07:15:46.270Z,100942.38
2023-02-02T07:18:13.071Z,100938.94
2023-02-02T07:20:39.839Z,100943.13
2023-02-02T07:23:06.652Z,100951.56
2023-02-02T07:25:33.417Z,100952.81
2023-02-02T07:28:00.232Z,100959.03
2023-02-02T07:30:29.644Z,100958.53
2023-02-02T07:32:57.228Z,100966.31
2023-02-02T07:35:24.407Z,100967.38
2023-02-02T07:37:51.387Z,100963.19
2023-02-02T07:40:18.171Z,100965.69
2023-02-02T07:42:46.405Z,100972.91
2023-02-02T07:45:24.554Z,100982.41
2023-02-02T07:47:54.549Z,100977.81
2023-02-02T07:50:21.635Z,100984.31
2023-02-02T07:52:48.374Z,100987.63
2023-02-02T07:55:15.223Z,100990.78
2023-02-02T07:57:42.003Z,100989.22
2023-02-02T08:00:09.346Z,100994.44
2023-02-02T08:02:36.129Z,100996.50
2023-02-02T08:05:02.930Z,100997.13
2023-02-02T08:07:32.179Z,100999.63
2023-02-02T08:09:58.916Z,101007.59
2023-02-02T08:12:26.445Z,100997.06
2023-02-02T08:14:53.392Z,101010.53
2023-02-02T08:17:20.158Z,101008.81
2023-02-02T08:19:46.910Z,101004.72
2023-02-02T08:22:13.662Z,101005.81
2023-02-02T08:24:42.742Z,101012.31
2023-02-02T08:27:09.507Z,101013.75
2023-02-02T08:29:36.278Z,101010.34
2023-02-02T08:32:03.313Z,101020.09
2023-02-02T08:34:30.089Z,101027.25
2023-02-02T08:36:56.843Z,101021.69
2023-02-02T08:39:24.478Z,101017.38
2023-02-02T08:41:51.275Z,101031.06
2023-02-02T08:44:18.077Z,101027.22
2023-02-02T08:46:46.395Z,101028.44
2023-02-02T08:49:13.175Z,101035.75
2023-02-02T08:51:39.918Z,101032.34
2023-02-02T08:54:06.702Z,101033.16
2023-02-02T08:56:33.475Z,101038.34
2023-02-02T08:59:00.331Z,101042.72
2023-02-02T09:01:27.173Z,101038.66
2023-02-02T09:03:53.918Z,101043.09
2023-02-02T09:06:20.987Z,101049.00
2023-02-02T09:08:47.772Z,101054.06
2023-02-02T09:11:14.626Z,101047.47
2023-02-02T09:13:41.473Z,101054.00
2023-02-02T09:16:08.264Z,101062.84
2023-02-02T09:18:35.205Z,101071.09
2023-02-02T09:21:02.019Z,101061.72
2023-02-02T09:23:28.846Z,101066.59
2023-02-02T09:25:55.663Z,101068.19
2023-02-02T09:28:22.412Z,101063.13
2023-02-02T09:30:49.553Z,101071.06
2023-02-02T09:33:16.329Z,101074.81
2023-02-02T09:35:43.106Z,101080.34
2023-02-02T09:38:09.954Z,101072.66
2023-02-02T09:40:36.758Z,101081.44
2023-02-02T09:43:03.983Z,101085.88
2023-02-02T09:45:30.765Z,101098.72
2023-02-02T09:47:58.325Z,101094.06
2023-02-02T09:50:25.065Z,101091.09
2023-02-02T09:52:51.820Z,101100.38
2023-02-02T09:55:19.744Z,101108.59
2023-02-02T09:57:46.487Z,101102.22
2023-02-02T10:00:13.245Z,101116.59
2023-02-02T10:02:40.023Z,101116.34
2023-02-02T10:05:08.555Z,101124.34
2023-02-02T10:07:35.335Z,101131.28
2023-02-02T10:10:02.102Z,101126.81
2023-02-02T10:12:28.876Z,101128.91
2023-02-02T10:14:57.968Z,101120.44
2023-02-02T10:17:24.800Z,101127.16
2023-02-02T10:19:51.550Z,101143.59
2023-02-02T10:22:18.312Z,101128.75
2023-02-02T10:24:45.121Z,101132.06
2023-02-02T10:27:11.869Z,101125.22
2023-02-02T10:29:48.439Z,101136.50
2023-02-02T10:32:22.397Z,101130.69
2023-02-02T10:34:49.170Z,101137.78
2023-02-02T10:37:15.907Z,101136.91
2023-02-02T10:39:42.698Z,101140.81
2023-02-02T10:42:09.844Z,101136.41
2023-02-02T10:44:36.616Z,101148.53
2023-02-02T10:47:03.405Z,101143.44
2023-02-02T10:49:31.801Z,101139.66
2023-02-02T10:51:58.548Z,101146.78
2023-02-02T10:54:25.354Z,101146.88
2023-02-02T10:56:53.852Z,101149.88
2023-02-02T10:59:20.597Z,101144.50
2023-02-02T11:01:48.488Z,101158.16
2023-02-02T11:04:33.869Z,101155.56
2023-02-02T11:07:01.697Z,101162.25
2023-02-02T11:09:28.762Z,101170.34
2023-02-02T11:11:55.633Z,101166.38
2023-02-02T11:14:22.644Z,101173.03
2023-02-02T11:16:49.421Z,101173.88
2023-02-02T11:19:16.210Z,101181.94
2023-02-02T11:21:43.168Z,101182.38
2023-02-02T11:24:09.888Z,101181.09
2023-02-02T11:26:36.637Z,101188.75
2023-02-02T11:29:03.443Z,101191.28
2023-02-02T11:31:30.433Z,101183.25
2023-02-02T11:33:57.285Z,101187.91
2023-02-02T11:36:24.023Z,101190.44
2023-02-02T11:38:50.782Z,101194.66
2023-02-02T11:41:19.079Z,101187.03
2023-02-02T11:43:46.010Z,101198.44
2023-02-02T11:46:12.799Z,101197.16
2023-02-02T11:48:39.673Z,101198.44
2023-02-02T11:51:06.493Z,101195.03
2023-02-02T11:53:33.292Z,101201.81
2023-02-02T11:56:00.075Z,101193.34
2023-02-02T11:58:29.998Z,101199.19
2023-02-02T12:00:56.814Z,101199.63
2023-02-02T12:03:23.698Z,101202.38
2023-02-02T12:05:50.499Z,101199.59
2023-02-02T12:08:17.288Z,101203.44
2023-02-02T12:10:44.058Z,101210.38
2023-02-02T12:13:10.862Z,101203.41
2023-02-02T12:15:37.632Z,101208.88
2023-02-02T12:18:04.439Z,101208.03
2023-02-02T12:20:31.194Z,101203.59
2023-02-02T12:22:57.956Z,101210.88
2023-02-02T12:25:25.109Z,101197.41
2023-02-02T12:27:52.079Z,101213.00
2023-02-02T12:30:18.824Z,101217.19
2023-02-02T12:32:45.800Z,101216.56
2023-02-02T12:35:12.545Z,101217.00
2023-02-02T12:37:39.283Z,101212.81
2023-02-02T12:40:06.117Z,101212.84
2023-02-02T12:42:32.856Z,101222.13
2023-02-02T12:44:59.871Z,101220.44
2023-02-02T12:47:26.701Z,101230.13
2023-02-02T12:49:53.669Z,101236.91
2023-02-02T12:52:20.450Z,101236.06
2023-02-02T12:54:55.685Z,101234.75
2023-02-02T12:57:24.161Z,101238.34
2023-02-02T12:59:50.938Z,101240.66
2023-02-02T13:02:17.797Z,101240.66
2023-02-02T13:04:44.566Z,101233.03
2023-02-02T13:07:11.369Z,101239.41
2023-02-02T13:09:38.112Z,101258.00
2023-02-02T13:12:04.874Z,101257.56
2023-02-02T13:14:31.705Z,101260.59
2023-02-02T13:16:58.547Z,101274.00
2023-02-02T13:19:25.322Z,101283.91
2023-02-02T13:21:52.091Z,101280.69
2023-02-02T13:24:18.867Z,101283.38
2023-02-02T13:26:45.717Z,101289.56
2023-02-02T13:29:12.655Z,101296.84
2023-02-02T13:31:39.516Z,101299.44
2023-02-02T13:34:06.288Z,101298.44
2023-02-02T13:36:37.086Z,101302.03
2023-02-02T13:39:03.927Z,101308.19
2023-02-02T13:41:31.305Z,101310.50
2023-02-02T13:43:59.178Z,101310.72
2023-02-02T13:46:26.011Z,101313.88
2023-02-02T13:48:52.903Z,101307.28
2023-02-02T13:51:22.687Z,101307.31
2023-02-02T13:53:49.531Z,101308.78
2023-02-02T13:56:16.349Z,101312.16
2023-02-02T13:58:43.263Z,101312.16
2023-02-02T14:01:10.116Z,101315.09
2023-02-02T14:03:38.732Z,101314.69
2023-02-02T14:06:05.537Z,101311.50
2023-02-02T14:08:32.292Z,101317.56
2023-02-02T14:10:59.141Z,101322.66
2023-02-02T14:13:44.650Z,101317.34
2023-02-02T14:16:11.461Z,101319.97
2023-02-02T14:18:38.233Z,101326.72
2023-02-02T14:21:05.008Z,101334.13
2023-02-02T14:23:31.754Z,101341.59
2023-02-02T14:25:58.493Z,101339.00
2023-02-02T14:28:25.255Z,101334.72
2023-02-02T14:30:52.124Z,101349.22
2023-02-02T14:33:18.942Z,101344.25
2023-02-02T14:35:45.733Z,101345.91
2023-02-02T14:38:13.458Z,101348.94
2023-02-02T14:40:40.289Z,101356.16
2023-02-02T14:43:25.817Z,101371.81
2023-02-02T14:45:52.628Z,101399.53
2023-02-02T14:48:19.722Z,101394.66
2023-02-02T14:50:46.533Z,101378.16
2023-02-02T14:53:13.294Z,101392.13
2023-02-02T14:55:40.083Z,101390.88
2023-02-02T14:58:06.850Z,101401.66
2023-02-02T15:00:33.643Z,101400.81
2023-02-02T15:03:00.391Z,101401.06
2023-02-02T15:05:27.459Z,101417.78
2023-02-02T15:07:54.677Z,101416.28
2023-02-02T15:10:21.409Z,101421.34
2023-02-02T15:12:49.676Z,101423.06
2023-02-02T15:15:17.417Z,101428.56
2023-02-02T15:17:48.664Z,101427.53
2023-02-02T15:20:20.925Z,101423.50
2023-02-02T15:22:47.693Z,101430.25
2023-02-02T15:25:14.440Z,101436.59
2023-02-02T15:27:55.099Z,101439.09
2023-02-02T15:30:23.956Z,101451.16
2023-02-02T15:32:50.752Z,101446.38
2023-02-02T15:35:17.610Z,101450.44
2023-02-02T15:37:44.884Z,101444.97
2023-02-02T15:40:11.757Z,101451.78
2023-02-02T15:42:53.932Z,101453.91
2023-02-02T15:45:20.758Z,101464.47
2023-02-02T15:47:47.514Z,101465.13
2023-02-02T15:50:14.364Z,101476.38
2023-02-02T15:52:41.114Z,101474.84
2023-02-02T15:55:07.885Z,101484.00
2023-02-02T15:57:34.653Z,101490.78
2023-02-02T16:00:01.558Z,101494.81
2023-02-02T16:02:28.327Z,101501.34
2023-02-02T16:04:55.194Z,101505.34
2023-02-02T16:07:22.038Z,101513.88
2023-02-02T16:09:48.770Z,101516.88
2023-02-02T16:12:18.471Z,101525.44
2023-02-02T16:14:45.225Z,101529.50
2023-02-02T16:17:12.502Z,101533.41
2023-02-02T16:19:39.433Z,101529.81
2023-02-02T16:22:06.214Z,101535.78
2023-02-02T16:24:33.027Z,101545.09
2023-02-02T16:26:59.755Z,101550.25
2023-02-02T16:29:27.984Z,101562.13
2023-02-02T16:31:54.764Z,101568.09
2023-02-02T16:34:21.527Z,101569.78
2023-02-02T16:36:48.363Z,101570.44
2023-02-02T16:39:15.091Z,101574.06
2023-02-02T16:41:41.872Z,101579.19
2023-02-02T16:44:08.654Z,101588.13
2023-02-02T16:46:35.396Z,101592.34
2023-02-02T16:49:02.170Z,101604.66
2023-02-02T16:51:29.012Z,101595.75
2023-02-02T16:53:55.759Z,101603.19
2023-02-02T16:56:22.501Z,101593.94
2023-02-02T16:58:49.314Z,101603.59
2023-02-02T17:01:17.014Z,101607.75
2023-02-02T17:03:43.852Z,101608.94
2023-02-02T17:06:10.629Z,101615.31
2023-02-02T17:08:37.386Z,101614.06
2023-02-02T17:11:04.161Z,101610.88
2023-02-02T17:13:30.965Z,101622.78
2023-02-02T17:15:57.843Z,101613.19
2023-02-02T17:18:24.562Z,101608.56
2023-02-02T17:20:57.335Z,101619.81
2023-02-02T17:23:24.101Z,101617.34
2023-02-02T17:25:50.838Z,101614.38
2023-02-02T17:28:17.711Z,101608.75
2023-02-02T17:30:44.540Z,101618.09
2023-02-02T17:33:11.443Z,101627.84
2023-02-02T17:35:53.243Z,101630.00
2023-02-02T17:38:21.511Z,101636.34
2023-02-02T17:40:48.307Z,101633.66
2023-02-02T17:43:16.005Z,101641.47
2023-02-02T17:45:42.998Z,101637.28
2023-02-02T17:48:09.755Z,101640.66
2023-02-02T17:50:36.555Z,101631.34
2023-02-02T17:53:03.413Z,101642.50
2023-02-02T17:55:30.306Z,101640.41
2023-02-02T17:57:57.053Z,101642.50
2023-02-02T18:00:24.101Z,101641.97
2023-02-02T18:02:51.062Z,101649.47
2023-02-02T18:05:17.789Z,101647.78
2023-02-02T18:07:44.601Z,101651.69
2023-02-02T18:10:11.371Z,101654.97
2023-02-02T18:12:38.946Z,101650.88
2023-02-02T18:15:05.740Z,101657.72
2023-02-02T18:17:34.044Z,101653.31
2023-02-02T18:20:00.938Z,101651.88
2023-02-02T18:22:27.749Z,101652.34
2023-02-02T18:24:54.532Z,101650.72
2023-02-02T18:27:21.294Z,101654.50
2023-02-02T18:29:48.078Z,101652.03
2023-02-02T18:32:14.847Z,101652.47
2023-02-02T18:34:41.615Z,101655.22
2023-02-02T18:37:08.364Z,101648.25
2023-02-02T18:39:35.133Z,101653.16
2023-02-02T18:42:02.416Z,101656.06
2023-02-02T18:44:29.448Z,101649.13
2023-02-02T18:46:56.244Z,101650.28
2023-02-02T18:49:23.115Z,101643.19
2023-02-02T18:51:49.959Z,101644.84
2023-02-02T18:54:16.801Z,101643.59
2023-02-02T18:56:43.548Z,101643.34
2023-02-02T18:59:10.326Z,101640.63
2023-02-02T19:01:37.213Z,101642.75
2023-02-02T19:04:04.141Z,101633.53
2023-02-02T19:06:49.710Z,101631.03
2023-02-02T19:09:17.206Z,101629.81
2023-02-02T19:11:44.823Z,101631.56
2023-02-02T19:14:11.711Z,101633.28
2023-02-02T19:16:38.456Z,101624.63
2023-02-02T19:19:05.239Z,101629.31
2023-02-02T19:21:32.021Z,101635.66
2023-02-02T19:23:58.746Z,101638.50
2023-02-02T19:26:25.601Z,101638.72
2023-02-02T19:28:52.431Z,101644.00
2023-02-02T19:31:19.309Z,101643.63
2023-02-02T19:33:46.137Z,101645.56
2023-02-02T19:36:12.880Z,101646.34
2023-02-02T19:38:39.607Z,101647.47
2023-02-02T19:41:07.628Z,101656.69
2023-02-02T19:43:36.319Z,101656.31
2023-02-02T19:46:03.108Z,101659.94
2023-02-02T19:48:29.980Z,101660.22
2023-02-02T19:50:56.811Z,101661.19
2023-02-02T19:53:23.568Z,101661.06
2023-02-02T19:55:50.346Z,101664.31
2023-02-02T19:58:17.104Z,101654.72
2023-02-02T20:00:46.643Z,101655.59
2023-02-02T20:03:13.567Z,101653.94
2023-02-02T20:05:40.678Z,101648.88
2023-02-02T20:08:07.442Z,101655.13
2023-02-02T20:10:34.203Z,101653.16
2023-02-02T20:13:00.943Z,101649.00
2023-02-02T20:15:28.067Z,101644.19
2023-02-02T20:17:55.083Z,101653.50
2023-02-02T20:20:22.042Z,101647.38
2023-02-02T20:22:48.793Z,101649.53
2023-02-02T20:25:15.594Z,101664.34
2023-02-02T20:27:43.753Z,101653.75
2023-02-02T20:30:10.507Z,101649.72
2023-02-02T20:32:37.347Z,101645.56
2023-02-02T20:35:04.092Z,101643.38
2023-02-02T20:37:30.886Z,101635.66
2023-02-02T20:39:57.669Z,101635.56
2023-02-02T20:42:24.500Z,101622.34
2023-02-02T20:44:51.250Z,101615.94
2023-02-02T20:47:17.981Z,101611.47
2023-02-02T20:49:44.765Z,101611.88
2023-02-02T20:52:12.846Z,101618.72
2023-02-02T20:54:39.648Z,101619.63
2023-02-02T20:57:06.435Z,101606.75
2023-02-02T20:59:33.188Z,101612.72
2023-02-02T21:02:00.057Z,101611.25
2023-02-02T21:04:26.849Z,101620.16
2023-02-02T21:06:55.174Z,101616.41
2023-02-02T21:09:22.040Z,101618.09
2023-02-02T21:11:48.858Z,101620.09
2023-02-02T21:14:15.854Z,101614.78
2023-02-02T21:16:42.653Z,101610.56
2023-02-02T21:19:09.463Z,101609.72
2023-02-02T21:21:36.267Z,101599.56
2023-02-02T21:24:04.063Z,101606.34
2023-02-02T21:26:31.116Z,101612.59
2023-02-02T21:28:58.345Z,101609.44
2023-02-02T21:31:25.425Z,101603.34
2023-02-02T21:33:53.037Z,101608.19
2023-02-02T21:36:20.656Z,101610.69
2023-02-02T21:38:47.408Z,101602.75
2023-02-02T21:41:14.218Z,101601.91
2023-02-02T21:43:40.966Z,101603.78
2023-02-02T21:46:07.753Z,101599.44
2023-02-02T21:48:34.662Z,101599.50
2023-02-02T21:51:01.390Z,101598.06
2023-02-02T21:53:28.140Z,101594.78
2023-02-02T21:55:55.042Z,101593.47
2023-02-02T21:58:22.203Z,101592.44
2023-02-02T22:00:48.947Z,101588.66
2023-02-02T22:03:15.693Z,101597.00
2023-02-02T22:05:42.477Z,101595.28
2023-02-02T22:08:09.224Z,101591.31
2023-02-02T22:10:36.493Z,101583.06
2023-02-02T22:13:03.235Z,101576.69
2023-02-02T22:15:29.974Z,101578.00
2023-02-02T22:17:56.779Z,101571.84
2023-02-02T22:20:23.521Z,101559.97
2023-02-02T22:22:50.276Z,101562.84
2023-02-02T22:25:17.092Z,101576.75
2023-02-02T22:27:43.855Z,101566.97
2023-02-02T22:30:10.615Z,101580.09
2023-02-02T22:32:37.366Z,101580.44
2023-02-02T22:35:04.167Z,101578.34
2023-02-02T22:37:30.897Z,101586.75
2023-02-02T22:40:00.355Z,101577.28
2023-02-02T22:42:27.508Z,101576.69
2023-02-02T22:44:54.279Z,101578.63
2023-02-02T22:47:21.078Z,101582.03
2023-02-02T22:49:47.818Z,101578.03
2023-02-02T22:52:14.583Z,101583.97
2023-02-02T22:54:41.375Z,101583.59
2023-02-02T22:57:08.108Z,101588.50
2023-02-02T22:59:34.852Z,101584.72
2023-02-02T23:02:01.618Z,101576.91
2023-02-02T23:04:28.358Z,101572.88
2023-02-02T23:06:55.123Z,101569.09
2023-02-02T23:09:21.873Z,101562.31
2023-02-02T23:11:49.494Z,101549.44
2023-02-02T23:14:16.328Z,101551.59
2023-02-02T23:16:43.088Z,101556.63
2023-02-02T23:19:09.833Z,101546.56
2023-02-02T23:21:36.617Z,101546.31
2023-02-02T23:24:03.376Z,101559.00
2023-02-02T23:26:30.156Z,101550.22
2023-02-02T23:28:56.908Z,101527.00
2023-02-02T23:31:23.835Z,101525.81
2023-02-02T23:33:50.680Z,101524.00
2023-02-02T23:36:17.411Z,101514.78
2023-02-02T23:38:44.188Z,101512.25
2023-02-02T23:41:10.944Z,101504.66
2023-02-02T23:43:37.677Z,101501.06
2023-02-02T23:46:04.530Z,101489.00
2023-02-02T23:48:31.324Z,101484.81
2023-02-02T23:50:58.131Z,101478.44
2023-02-02T23:53:24.922Z,101475.53
2023-02-02T23:55:51.689Z,101460.28
2023-02-02T23:58:20.410Z,101455.22
